Time;durP1;ratioP1;P1;durP2;ratioP2;P2;SDS_P1;SDS_P2;PMS_P1;PMS_P2;Temp;Humidity;BMP_temperature;BMP_pressure;BME280_temperature;BME280_humidity;BME280_pressure;Samples;Min_cycle;Max_cycle;Signal;HPM_P1;HPM_P2
2021/04/26 00:01:06;;;;;;;4.45;1.60;;;7.90;1.00;;;;;;5023890;28;20025;-84
2021/04/26 00:03:36;;;;;;;5.18;2.10;;;7.90;1.00;;;;;;5013433;28;20041;-81
2021/04/26 00:06:07;;;;;;;2.28;1.70;;;7.80;1.00;;;;;;5005217;28;20022;-80
2021/04/26 00:08:33;;;;;;;4.13;1.90;;;7.80;1.00;;;;;;5021041;28;20022;-82
2021/04/26 00:10:59;;;;;;;4.18;2.17;;;7.80;1.00;;;;;;5024911;28;20080;-82
2021/04/26 00:13:25;;;;;;;2.78;2.00;;;7.80;1.00;;;;;;5008157;28;20019;-83
2021/04/26 00:15:50;;;;;;;5.85;1.92;;;7.80;1.00;;;;;;5017241;28;20477;-82
2021/04/26 00:18:16;;;;;;;3.63;2.00;;;7.80;1.00;;;;;;5024101;28;20065;-79
2021/04/26 00:20:42;;;;;;;3.70;2.20;;;7.80;7.70;;;;;;5029626;28;20030;-80
2021/04/26 00:23:09;;;;;;;3.85;2.10;;;7.70;73.10;;;;;;5021187;28;20025;-83
2021/04/26 00:25:34;;;;;;;5.10;2.08;;;7.70;99.90;;;;;;5022347;28;20556;-81
2021/04/26 00:28:02;;;;;;;5.78;1.95;;;7.70;99.90;;;;;;5022123;28;20064;-80
2021/04/26 00:30:28;;;;;;;3.53;1.90;;;7.90;35.10;;;;;;5021920;28;20048;-82
2021/04/26 00:32:55;;;;;;;5.03;1.98;;;7.90;6.80;;;;;;5020796;28;20033;-82
2021/04/26 00:35:21;;;;;;;5.22;2.83;;;7.90;33.70;;;;;;5016520;28;20021;-80
2021/04/26 00:37:49;;;;;;;4.45;2.50;;;7.80;99.90;;;;;;5015765;28;20036;-83
2021/04/26 00:40:16;;;;;;;6.35;2.38;;;7.80;99.90;;;;;;5031054;28;20021;-80
2021/04/26 00:42:42;;;;;;;3.63;2.65;;;7.80;99.90;;;;;;5036407;28;20014;-81
2021/04/26 00:45:14;;;;;;;5.38;2.35;;;7.70;99.90;;;;;;5023279;28;20030;-78
2021/04/26 00:47:42;;;;;;;3.33;1.92;;;7.80;99.90;;;;;;5028569;28;20048;-78
2021/04/26 00:50:22;;;;;;;3.05;2.03;;;7.80;99.90;;;;;;5037387;28;20025;-78
2021/04/26 00:52:49;;;;;;;4.00;2.65;;;7.80;99.90;;;;;;5035536;28;20025;-78
2021/04/26 00:55:15;;;;;;;3.88;2.45;;;7.80;99.90;;;;;;5034922;28;20038;-79
2021/04/26 00:57:42;;;;;;;6.50;2.58;;;7.70;99.90;;;;;;5031458;28;20034;-81
2021/04/26 01:00:09;;;;;;;5.15;3.10;;;7.60;1.00;;;;;;5018040;28;20485;-83
2021/04/26 01:02:36;;;;;;;6.63;2.40;;;7.60;1.00;;;;;;5020685;28;20053;-80
2021/04/26 01:05:04;;;;;;;3.70;2.17;;;7.60;1.00;;;;;;5023505;28;20026;-81
2021/04/26 01:07:30;;;;;;;3.38;2.25;;;7.50;99.90;;;;;;5035185;28;20037;-78
2021/04/26 01:09:56;;;;;;;7.05;3.35;;;7.50;99.90;;;;;;5019045;28;20378;-80
2021/04/26 01:12:42;;;;;;;5.15;2.00;;;7.40;99.90;;;;;;5022199;28;20026;-82
2021/04/26 01:15:26;;;;;;;4.10;2.25;;;7.30;1.00;;;;;;5024612;28;20030;-80
2021/04/26 01:17:58;;;;;;;4.70;2.80;;;7.20;99.90;;;;;;5016840;28;20429;-81
2021/04/26 01:20:55;;;;;;;7.30;2.67;;;7.20;99.90;;;;;;5016343;28;20052;-83
2021/04/26 01:23:58;;;;;;;2.88;2.33;;;7.10;65.50;;;;;;5018238;28;20072;-81
2021/04/26 01:26:36;;;;;;;5.07;2.50;;;7.00;99.90;;;;;;5024100;28;20025;-83
2021/04/26 01:29:28;;;;;;;5.60;3.03;;;7.00;1.00;;;;;;5021595;28;20026;-82
2021/04/26 01:32:12;;;;;;;5.28;2.83;;;6.80;1.00;;;;;;5015087;28;20068;-81
2021/04/26 01:34:40;;;;;;;6.28;2.90;;;6.80;99.90;;;;;;5015995;28;20065;-81
2021/04/26 01:37:07;;;;;;;3.45;2.45;;;6.70;1.00;;;;;;5012597;28;20061;-83
2021/04/26 01:39:33;;;;;;;5.75;2.70;;;6.60;99.90;;;;;;5026003;28;20094;-82
2021/04/26 01:42:00;;;;;;;4.10;2.92;;;6.60;99.90;;;;;;5021030;28;20022;-82
2021/04/26 01:44:26;;;;;;;4.28;3.13;;;6.60;99.90;;;;;;5006708;28;20046;-80
2021/04/26 01:46:52;;;;;;;5.45;3.05;;;6.50;1.00;;;;;;5034629;28;20022;-80
2021/04/26 01:49:19;;;;;;;5.55;3.10;;;6.50;99.90;;;;;;5026617;28;20588;-82
2021/04/26 01:51:47;;;;;;;5.20;3.05;;;6.40;99.90;;;;;;5023912;28;20029;-81
2021/04/26 01:54:13;;;;;;;3.67;2.65;;;6.40;99.90;;;;;;5019975;28;20084;-82
2021/04/26 01:56:40;;;;;;;5.72;3.38;;;6.30;99.90;;;;;;5034991;28;20048;-81
2021/04/26 01:59:07;;;;;;;6.13;3.15;;;6.30;1.00;;;;;;5024450;28;20061;-82
2021/04/26 02:01:33;;;;;;;5.35;3.20;;;6.20;1.00;;;;;;5023732;28;20034;-83
2021/04/26 02:04:01;;;;;;;3.78;2.85;;;6.20;1.00;;;;;;5004600;28;20030;-82
2021/04/26 02:06:28;;;;;;;5.35;3.60;;;6.20;1.00;;;;;;5018057;28;20033;-81
2021/04/26 02:08:55;;;;;;;5.30;3.65;;;6.20;23.00;;;;;;5022932;28;20022;-82
2021/04/26 02:11:21;;;;;;;6.55;3.75;;;6.40;1.00;;;;;;5015198;28;20054;-82
2021/04/26 02:13:48;;;;;;;7.63;3.92;;;6.60;1.00;;;;;;5030388;28;20025;-82
2021/04/26 02:16:13;;;;;;;5.57;3.20;;;6.60;99.90;;;;;;5028573;28;20160;-81
2021/04/26 02:18:39;;;;;;;6.65;3.50;;;6.60;99.90;;;;;;5016274;28;20504;-83
2021/04/26 02:21:05;;;;;;;7.13;3.70;;;6.60;99.90;;;;;;5023607;28;20033;-79
2021/04/26 02:23:31;;;;;;;9.43;3.70;;;6.50;1.00;;;;;;5030153;28;20022;-82
2021/04/26 02:25:58;;;;;;;6.32;3.97;;;6.40;1.00;;;;;;5020507;28;20026;-82
2021/04/26 02:28:23;;;;;;;8.68;4.40;;;6.50;1.00;;;;;;5019849;28;20034;-84
2021/04/26 02:30:53;;;;;;;6.32;4.03;;;6.60;99.90;;;;;;5022317;28;20468;-83
2021/04/26 02:33:24;;;;;;;7.80;3.72;;;6.60;99.90;;;;;;5022217;28;20029;-84
2021/04/26 02:35:55;;;;;;;5.55;4.45;;;6.60;99.90;;;;;;5013420;28;20104;-82
2021/04/26 02:38:47;;;;;;;4.15;3.45;;;6.70;99.90;;;;;;5007067;28;20494;-80
2021/04/26 02:41:20;;;;;;;6.65;4.20;;;6.70;99.90;;;;;;5021991;28;20033;-82
2021/04/26 02:43:53;;;;;;;8.13;4.30;;;6.70;99.90;;;;;;5012810;28;20018;-82
2021/04/26 02:46:23;;;;;;;7.43;3.88;;;6.70;99.90;;;;;;5021508;28;20153;-80
2021/04/26 02:48:49;;;;;;;5.93;4.03;;;6.70;99.90;;;;;;5020297;28;20026;-82
2021/04/26 02:51:17;;;;;;;6.20;4.53;;;6.70;99.90;;;;;;5021146;28;20264;-83
2021/04/26 02:53:43;;;;;;;7.50;4.40;;;6.70;99.90;;;;;;5003226;28;20080;-81
2021/04/26 02:56:12;;;;;;;12.73;4.30;;;6.70;99.90;;;;;;5018655;28;20034;-81
2021/04/26 02:58:39;;;;;;;6.25;4.05;;;6.60;99.90;;;;;;5023501;28;20045;-82
2021/04/26 03:01:07;;;;;;;8.05;4.32;;;6.60;99.90;;;;;;5022504;28;20022;-80
2021/04/26 03:03:34;;;;;;;7.72;4.03;;;6.60;99.90;;;;;;5020235;28;20470;-83
2021/04/26 03:06:01;;;;;;;7.85;3.58;;;6.50;1.00;;;;;;5014237;28;20030;-82
2021/04/26 03:08:29;;;;;;;6.65;4.63;;;6.40;1.00;;;;;;5022319;28;20025;-82
2021/04/26 03:10:55;;;;;;;18.02;6.53;;;6.40;1.00;;;;;;5021620;28;20109;-81
2021/04/26 03:13:21;;;;;;;7.57;4.45;;;6.40;1.00;;;;;;5012166;28;20519;-83
2021/04/26 03:15:47;;;;;;;8.95;4.25;;;6.50;99.90;;;;;;5026037;28;20022;-83
2021/04/26 03:18:14;;;;;;;8.98;4.78;;;6.50;99.90;;;;;;5018905;28;20057;-83
2021/04/26 03:20:40;;;;;;;4.43;3.72;;;6.50;99.90;;;;;;5024533;28;20081;-82
2021/04/26 03:23:08;;;;;;;9.90;4.38;;;6.50;99.90;;;;;;5024294;28;20072;-83
2021/04/26 03:25:35;;;;;;;7.72;3.90;;;6.40;99.90;;;;;;5022693;28;20026;-81
2021/04/26 03:28:01;;;;;;;7.32;4.47;;;6.40;99.90;;;;;;5021602;28;20057;-82
2021/04/26 03:30:28;;;;;;;6.43;4.55;;;6.40;99.90;;;;;;5027409;28;20026;-79
2021/04/26 03:32:55;;;;;;;6.05;4.53;;;6.40;53.00;;;;;;5029544;28;20021;-79
2021/04/26 03:35:22;;;;;;;7.57;4.00;;;6.40;1.00;;;;;;5037801;28;20077;-80
2021/04/26 03:37:53;;;;;;;10.95;4.57;;;6.40;1.00;;;;;;5031006;28;20114;-76
2021/04/26 03:40:23;;;;;;;5.70;3.92;;;6.40;99.90;;;;;;5035611;28;20022;-79
2021/04/26 03:43:00;;;;;;;6.82;4.38;;;6.30;46.30;;;;;;5030247;28;20037;-78
2021/04/26 03:45:27;;;;;;;7.45;4.47;;;6.20;99.90;;;;;;5036425;28;20025;-79
2021/04/26 03:47:53;;;;;;;8.70;4.38;;;6.00;99.90;;;;;;5038102;28;20053;-78
2021/04/26 03:50:21;;;;;;;8.63;4.68;;;6.00;99.90;;;;;;5049492;28;20044;-79
2021/04/26 03:52:48;;;;;;;8.10;4.05;;;5.80;1.00;;;;;;5029579;28;20037;-79
2021/04/26 03:55:16;;;;;;;8.23;5.50;;;5.90;99.90;;;;;;5032606;28;20006;-81
2021/04/26 03:57:42;;;;;;;10.05;4.18;;;6.00;99.90;;;;;;5023399;28;20037;-79
2021/04/26 04:00:10;;;;;;;8.45;4.28;;;6.00;99.90;;;;;;5036136;28;20029;-81
2021/04/26 04:02:36;;;;;;;7.85;4.60;;;6.00;99.90;;;;;;5035613;28;20036;-83
2021/04/26 04:05:04;;;;;;;7.63;4.55;;;6.00;99.90;;;;;;5030137;28;20026;-79
2021/04/26 04:07:29;;;;;;;7.43;4.80;;;5.90;99.90;;;;;;5035292;28;20034;-79
2021/04/26 04:09:56;;;;;;;6.68;4.43;;;5.90;99.90;;;;;;5032041;28;20128;-81
2021/04/26 04:12:22;;;;;;;6.47;3.90;;;6.00;8.10;;;;;;5030450;28;20026;-80
2021/04/26 04:14:48;;;;;;;7.82;4.43;;;6.00;1.00;;;;;;5029159;28;20133;-83
2021/04/26 04:17:14;;;;;;;5.43;3.97;;;6.00;1.00;;;;;;5025752;28;20036;-81
2021/04/26 04:19:39;;;;;;;8.80;4.35;;;6.00;87.70;;;;;;5025701;28;20063;-80
2021/04/26 04:22:05;;;;;;;8.18;4.97;;;6.00;88.50;;;;;;5029731;28;20045;-80
2021/04/26 04:24:31;;;;;;;5.45;4.32;;;6.00;99.90;;;;;;5032377;28;20014;-80
2021/04/26 04:26:56;;;;;;;7.57;4.80;;;6.00;99.90;;;;;;5032984;28;20120;-81
2021/04/26 04:29:22;;;;;;;11.13;5.07;;;6.00;1.00;;;;;;5026414;28;20037;-82
2021/04/26 04:31:49;;;;;;;9.25;4.20;;;6.00;9.30;;;;;;5043496;22;20038;-77
2021/04/26 04:34:14;;;;;;;6.53;4.05;;;6.00;99.90;;;;;;5014192;28;20093;-77
2021/04/26 04:36:40;;;;;;;7.05;4.72;;;6.00;99.90;;;;;;5012047;28;20061;-76
2021/04/26 04:39:06;;;;;;;7.30;4.00;;;6.10;12.00;;;;;;5007365;28;20033;-76
2021/04/26 04:41:31;;;;;;;8.73;4.70;;;6.20;1.00;;;;;;5009065;28;20445;-76
2021/04/26 04:43:57;;;;;;;7.18;4.18;;;6.20;1.00;;;;;;4997315;28;20034;-77
2021/04/26 04:46:23;;;;;;;7.85;4.82;;;6.50;99.90;;;;;;4995278;28;20032;-76
2021/04/26 04:48:48;;;;;;;6.97;5.28;;;6.60;1.00;;;;;;4989706;28;20336;-76
2021/04/26 04:51:14;;;;;;;7.18;4.05;;;6.70;99.90;;;;;;4996226;28;20010;-76
2021/04/26 04:53:40;;;;;;;8.02;5.03;;;6.70;50.20;;;;;;5003856;28;20037;-76
2021/04/26 04:56:06;;;;;;;4.85;3.60;;;7.20;1.00;;;;;;5012435;28;20021;-76
2021/04/26 04:58:31;;;;;;;7.78;4.35;;;7.90;99.90;;;;;;5012979;28;20030;-76
2021/04/26 05:00:57;;;;;;;4.40;3.72;;;8.40;14.50;;;;;;5009337;28;20023;-76
2021/04/26 05:03:23;;;;;;;3.67;3.03;;;8.60;99.90;;;;;;5014573;28;20011;-76
2021/04/26 05:05:48;;;;;;;8.85;4.35;;;8.80;99.90;;;;;;5007481;28;20034;-76
2021/04/26 05:08:14;;;;;;;9.15;3.78;;;9.30;1.00;;;;;;4995295;28;20038;-76
2021/04/26 05:10:40;;;;;;;5.68;4.63;;;9.60;99.90;;;;;;5002177;28;20065;-76
2021/04/26 05:13:06;;;;;;;6.15;4.03;;;9.90;99.90;;;;;;4999343;28;20015;-76
2021/04/26 05:15:31;;;;;;;6.25;4.65;;;9.60;99.90;;;;;;5008160;28;20090;-77
2021/04/26 05:17:57;;;;;;;8.68;3.67;;;9.40;99.90;;;;;;5008184;28;20402;-76
2021/04/26 05:20:23;;;;;;;7.00;4.03;;;9.80;99.90;;;;;;5004562;28;20073;-75
2021/04/26 05:22:49;;;;;;;7.18;4.28;;;10.80;98.30;;;;;;5012234;28;20098;-76
2021/04/26 05:25:15;;;;;;;6.47;4.03;;;10.80;99.90;;;;;;5007528;28;20061;-77
2021/04/26 05:27:41;;;;;;;8.07;3.67;;;10.20;99.90;;;;;;5003102;28;20545;-77
2021/04/26 05:30:10;;;;;;;6.20;2.95;;;11.30;99.90;;;;;;5003146;28;20054;-76
2021/04/26 05:32:36;;;;;;;16.00;4.28;;;11.60;99.90;;;;;;5002865;28;20082;-76
2021/04/26 05:35:03;;;;;;;5.68;3.78;;;11.60;99.90;;;;;;4998175;28;20042;-76
2021/04/26 05:37:28;;;;;;;10.02;4.20;;;11.80;99.90;;;;;;4993148;28;20037;-76
2021/04/26 05:39:54;;;;;;;5.97;4.00;;;11.60;99.90;;;;;;5001220;28;20026;-77
2021/04/26 05:42:19;;;;;;;8.15;4.50;;;11.20;99.90;;;;;;5010065;28;20027;-76
2021/04/26 05:44:45;;;;;;;11.23;4.63;;;11.70;99.90;;;;;;5012280;28;20034;-77
2021/04/26 05:47:11;;;;;;;4.93;3.47;;;11.60;99.90;;;;;;5011199;28;20101;-76
2021/04/26 05:49:37;;;;;;;4.25;3.40;;;11.50;99.90;;;;;;5007939;28;20045;-76
2021/04/26 05:52:03;;;;;;;5.22;3.65;;;11.80;99.90;;;;;;5001019;28;20030;-76
2021/04/26 05:54:28;;;;;;;7.88;3.67;;;11.60;99.90;;;;;;5000769;28;20054;-77
2021/04/26 05:56:54;;;;;;;3.28;2.97;;;11.20;99.90;;;;;;4992204;28;20022;-76
2021/04/26 05:59:20;;;;;;;8.63;3.80;;;11.30;99.90;;;;;;4983571;28;20098;-75
2021/04/26 06:01:45;;;;;;;13.38;4.93;;;11.10;99.90;;;;;;4996943;28;20023;-77
2021/04/26 06:04:11;;;;;;;9.98;3.90;;;10.70;99.90;;;;;;4996728;28;20022;-76
2021/04/26 06:06:37;;;;;;;6.00;4.28;;;10.00;99.90;;;;;;4992287;28;20049;-77
2021/04/26 06:09:03;;;;;;;7.50;4.00;;;9.50;99.90;;;;;;4997031;28;20456;-77
2021/04/26 06:11:29;;;;;;;8.48;4.05;;;8.90;99.90;;;;;;4991984;28;20054;-78
2021/04/26 06:13:54;;;;;;;10.80;4.47;;;8.60;1.00;;;;;;4988996;28;20029;-77
2021/04/26 06:16:20;;;;;;;11.20;5.35;;;8.50;1.00;;;;;;4995821;28;20093;-76
2021/04/26 06:18:45;;;;;;;10.05;4.13;;;8.60;1.00;;;;;;4996753;28;20034;-77
2021/04/26 06:21:11;;;;;;;9.10;4.28;;;8.40;33.40;;;;;;4999159;28;20049;-76
2021/04/26 06:23:37;;;;;;;6.88;4.70;;;8.20;99.90;;;;;;4999709;28;20102;-76
2021/04/26 06:26:02;;;;;;;11.13;4.32;;;8.50;47.10;;;;;;4986496;28;20374;-77
2021/04/26 06:28:28;;;;;;;11.90;4.35;;;8.50;56.20;;;;;;4981139;28;20027;-76
2021/04/26 06:30:54;;;;;;;6.47;4.20;;;8.70;1.00;;;;;;4993727;28;20053;-75
2021/04/26 06:33:19;;;;;;;6.50;3.95;;;8.80;1.00;;;;;;4994377;28;20390;-75
2021/04/26 06:35:47;;;;;;;5.47;4.68;;;8.90;1.00;;;;;;4998930;28;20046;-77
2021/04/26 06:38:13;;;;;;;9.35;4.28;;;9.00;1.00;;;;;;4983886;28;20118;-76
2021/04/26 06:40:40;;;;;;;8.85;4.07;;;9.00;1.00;;;;;;4994310;28;20030;-76
2021/04/26 06:43:07;;;;;;;6.53;4.40;;;8.90;1.00;;;;;;4998971;28;20026;-77
2021/04/26 06:45:33;;;;;;;6.03;3.95;;;8.70;1.00;;;;;;4997749;28;20027;-77
2021/04/26 06:47:58;;;;;;;5.50;3.80;;;8.90;1.00;;;;;;4994401;28;20045;-77
2021/04/26 06:50:24;;;;;;;7.50;5.00;;;9.10;1.00;;;;;;4996203;28;20032;-76
2021/04/26 06:52:53;;;;;;;11.40;4.38;;;9.20;1.00;;;;;;4996564;28;20026;-76
2021/04/26 06:55:19;;;;;;;9.32;3.83;;;9.10;1.00;;;;;;4998056;28;20026;-77
2021/04/26 06:57:45;;;;;;;6.35;5.00;;;9.20;1.00;;;;;;4999355;28;20026;-77
2021/04/26 07:00:12;;;;;;;6.65;4.57;;;9.10;1.00;;;;;;4998308;28;20023;-77
2021/04/26 07:02:38;;;;;;;9.07;4.43;;;9.20;1.00;;;;;;4998013;28;20035;-77
2021/04/26 07:05:05;;;;;;;6.47;4.60;;;9.00;1.00;;;;;;4990010;28;20026;-77
2021/04/26 07:07:30;;;;;;;7.38;4.93;;;9.10;1.00;;;;;;4997377;28;20117;-76
2021/04/26 07:09:56;;;;;;;11.02;4.35;;;9.40;1.00;;;;;;4988443;28;20500;-77
2021/04/26 07:12:22;;;;;;;7.43;4.38;;;9.40;1.00;;;;;;4998690;28;20038;-77
2021/04/26 07:14:47;;;;;;;5.20;4.25;;;9.60;1.00;;;;;;4998970;28;20037;-77
2021/04/26 07:17:13;;;;;;;8.18;4.43;;;9.50;1.00;;;;;;4997169;28;20057;-77
2021/04/26 07:19:39;;;;;;;7.63;4.47;;;9.50;1.00;;;;;;4993327;28;20029;-77
2021/04/26 07:22:05;;;;;;;7.00;4.97;;;9.50;1.00;;;;;;4997582;28;20022;-77
2021/04/26 07:24:31;;;;;;;6.63;4.60;;;9.60;1.00;;;;;;4996628;28;20026;-77
2021/04/26 07:26:56;;;;;;;6.38;4.60;;;9.80;1.00;;;;;;4982839;28;20033;-76
2021/04/26 07:29:22;;;;;;;8.15;4.05;;;10.00;99.90;;;;;;4997618;28;20125;-77
2021/04/26 07:31:48;;;;;;;8.43;5.00;;;10.00;99.90;;;;;;4988618;28;20034;-77
2021/04/26 07:34:14;;;;;;;9.15;4.38;;;9.80;1.00;;;;;;4996048;28;20018;-76
2021/04/26 07:36:40;;;;;;;9.23;4.43;;;9.80;1.00;;;;;;4995582;28;20457;-73
2021/04/26 07:39:07;;;;;;;8.50;4.25;;;10.10;99.90;;;;;;4995422;28;20023;-74
2021/04/26 07:41:32;;;;;;;12.00;4.03;;;10.30;99.90;;;;;;4990910;28;20117;-74
2021/04/26 07:43:58;;;;;;;9.50;4.35;;;10.40;99.90;;;;;;4987457;28;20454;-74
2021/04/26 07:46:24;;;;;;;8.23;4.75;;;10.20;99.90;;;;;;4994778;28;20026;-74
2021/04/26 07:48:50;;;;;;;9.10;4.97;;;10.30;99.90;;;;;;4992294;28;20023;-73
2021/04/26 07:51:15;;;;;;;6.60;4.55;;;10.20;99.90;;;;;;4991118;28;20027;-73
2021/04/26 07:53:41;;;;;;;10.48;3.78;;;10.50;99.90;;;;;;4986396;28;20027;-73
2021/04/26 07:56:07;;;;;;;7.43;4.63;;;10.80;99.90;;;;;;4978016;28;20494;-74
2021/04/26 07:58:36;;;;;;;7.60;4.22;;;10.70;99.90;;;;;;4990625;28;20050;-73
2021/04/26 08:01:02;;;;;;;7.03;4.45;;;10.90;99.90;;;;;;4996694;28;20054;-74
2021/04/26 08:03:28;;;;;;;4.28;3.85;;;10.70;99.90;;;;;;4995029;28;20359;-74
2021/04/26 08:05:54;;;;;;;7.55;4.25;;;11.10;99.90;;;;;;4993515;28;20026;-73
2021/04/26 08:08:20;;;;;;;6.88;4.45;;;11.30;99.90;;;;;;4987256;28;20081;-73
2021/04/26 08:10:46;;;;;;;5.32;4.55;;;11.10;99.90;;;;;;4991451;28;20030;-73
2021/04/26 08:13:12;;;;;;;8.38;5.53;;;11.10;99.90;;;;;;4979240;28;20037;-73
2021/04/26 08:15:38;;;;;;;7.13;4.70;;;11.00;99.90;;;;;;4975228;28;20125;-73
2021/04/26 08:18:04;;;;;;;6.75;5.35;;;11.00;99.90;;;;;;4994539;28;20458;-74
2021/04/26 08:20:29;;;;;;;7.80;4.35;;;11.00;99.90;;;;;;4983674;28;20073;-74
2021/04/26 08:22:55;;;;;;;8.20;4.63;;;11.20;99.90;;;;;;4991662;28;20019;-74
2021/04/26 08:25:21;;;;;;;4.85;3.95;;;10.90;99.90;;;;;;4978350;28;20030;-74
2021/04/26 08:27:47;;;;;;;9.32;4.88;;;11.10;99.90;;;;;;4997359;28;20082;-74
2021/04/26 08:30:13;;;;;;;5.05;3.90;;;11.30;99.90;;;;;;4982171;28;20057;-74
2021/04/26 08:32:39;;;;;;;8.75;4.15;;;11.60;99.90;;;;;;4976992;28;20035;-75
2021/04/26 08:35:06;;;;;;;5.35;4.22;;;11.50;99.90;;;;;;4987298;28;20026;-74
2021/04/26 08:37:32;;;;;;;6.68;4.47;;;11.80;99.90;;;;;;4988490;28;20229;-74
2021/04/26 08:39:58;;;;;;;9.55;4.65;;;11.90;99.90;;;;;;4994749;28;20061;-74
2021/04/26 08:42:23;;;;;;;6.18;4.00;;;11.80;99.90;;;;;;5001879;28;20027;-73
2021/04/26 08:44:49;;;;;;;6.50;4.15;;;11.80;99.90;;;;;;5012005;28;20026;-73
2021/04/26 08:47:17;;;;;;;7.82;4.53;;;11.90;99.90;;;;;;4996327;28;20049;-75
2021/04/26 08:49:43;;;;;;;6.82;4.40;;;11.90;99.90;;;;;;4987111;28;20441;-73
2021/04/26 08:52:09;;;;;;;7.20;4.45;;;12.00;99.90;;;;;;4989976;28;20030;-73
2021/04/26 08:54:35;;;;;;;4.60;4.07;;;12.30;99.90;;;;;;4991971;28;20027;-73
2021/04/26 08:57:01;;;;;;;6.05;4.60;;;12.50;99.90;;;;;;4990826;28;20027;-73
2021/04/26 08:59:27;;;;;;;7.55;4.72;;;12.60;99.90;;;;;;4984607;28;20034;-73
2021/04/26 09:02:07;;;;;;;7.50;4.53;;;12.70;99.90;;;;;;4989801;28;20048;-72
2021/04/26 09:04:35;;;;;;;6.38;4.30;;;12.70;99.90;;;;;;4947558;28;20175;-73
2021/04/26 09:07:03;;;;;;;6.97;3.90;;;12.60;99.90;;;;;;4974126;28;20030;-74
2021/04/26 09:09:52;;;;;;;7.85;4.38;;;12.80;99.90;;;;;;4974926;28;20510;-75
2021/04/26 09:12:26;;;;;;;6.68;4.50;;;12.90;99.90;;;;;;4975098;28;20092;-73
2021/04/26 09:14:53;;;;;;;7.70;4.60;;;12.90;99.90;;;;;;4974372;28;20077;-73
2021/04/26 09:17:44;;;;;;;6.75;4.32;;;12.80;99.90;;;;;;4974565;28;20027;-73
2021/04/26 09:20:18;;;;;;;8.65;4.32;;;12.60;99.90;;;;;;4975374;28;20042;-73
2021/04/26 09:22:48;;;;;;;5.15;4.57;;;12.80;99.90;;;;;;4970951;28;20179;-73
2021/04/26 09:25:30;;;;;;;5.88;4.63;;;13.20;99.90;;;;;;4969130;28;20478;-73
2021/04/26 09:28:21;;;;;;;5.43;4.43;;;13.30;99.90;;;;;;4974386;28;20031;-73
2021/04/26 09:30:48;;;;;;;9.02;4.88;;;13.00;99.90;;;;;;4970153;28;20030;-72
2021/04/26 09:33:18;;;;;;;6.60;4.55;;;12.60;99.90;;;;;;4974102;28;20417;-72
2021/04/26 09:35:45;;;;;;;8.85;5.80;;;12.50;99.90;;;;;;4968704;28;20046;-73
2021/04/26 09:38:34;;;;;;;7.75;4.75;;;13.00;99.90;;;;;;4973796;28;20041;-73
2021/04/26 09:41:20;;;;;;;7.40;5.53;;;12.90;99.90;;;;;;4974843;28;20050;-72
2021/04/26 09:43:52;;;;;;;7.20;4.72;;;12.80;99.90;;;;;;4970959;28;20214;-72
2021/04/26 09:46:20;;;;;;;11.65;4.80;;;12.90;99.90;;;;;;4973446;28;20683;-72
2021/04/26 09:48:46;;;;;;;6.82;4.72;;;13.10;99.90;;;;;;4967896;28;20018;-73
2021/04/26 09:51:22;;;;;;;6.78;4.75;;;13.40;99.90;;;;;;4966482;28;20585;-72
2021/04/26 09:53:54;;;;;;;6.28;4.45;;;13.70;99.90;;;;;;4980450;28;20019;-73
2021/04/26 09:56:30;;;;;;;5.07;4.65;;;13.80;99.90;;;;;;4990795;28;20026;-73
2021/04/26 09:59:02;;;;;;;6.18;4.45;;;14.00;99.90;;;;;;4980901;28;20011;-73
2021/04/26 10:01:28;;;;;;;6.35;5.22;;;13.80;99.90;;;;;;4979551;28;20085;-73
2021/04/26 10:03:54;;;;;;;7.57;4.95;;;13.60;99.90;;;;;;4977944;28;20027;-73
2021/04/26 10:06:23;;;;;;;5.22;4.28;;;13.50;99.90;;;;;;4976953;28;20037;-72
2021/04/26 10:08:50;;;;;;;9.75;4.60;;;13.60;99.90;;;;;;4975861;28;20106;-72
2021/04/26 10:11:17;;;;;;;10.27;5.03;;;13.90;99.90;;;;;;4977863;28;20395;-73
2021/04/26 10:13:45;;;;;;;7.55;5.63;;;13.80;99.90;;;;;;4977456;28;20037;-72
2021/04/26 10:16:15;;;;;;;7.90;4.95;;;13.70;99.90;;;;;;4977846;28;20015;-72
2021/04/26 10:18:42;;;;;;;5.47;4.20;;;13.60;99.90;;;;;;4975925;28;20319;-72
2021/04/26 10:21:19;;;;;;;8.15;4.72;;;13.90;99.90;;;;;;4958620;28;20032;-72
2021/04/26 10:23:48;;;;;;;5.63;4.60;;;14.40;99.90;;;;;;4966212;28;20023;-72
2021/04/26 10:26:43;;;;;;;4.95;4.40;;;14.50;99.90;;;;;;4970784;28;20019;-72
2021/04/26 10:29:25;;;;;;;6.10;4.82;;;14.70;99.90;;;;;;4978107;28;20589;-73
2021/04/26 10:31:59;;;;;;;5.82;4.90;;;14.30;99.90;;;;;;4976541;28;20039;-72
2021/04/26 10:34:26;;;;;;;7.28;4.55;;;14.30;99.90;;;;;;4977388;28;20368;-75
2021/04/26 10:36:56;;;;;;;7.93;4.38;;;14.50;99.90;;;;;;4969611;28;20029;-73
2021/04/26 10:39:23;;;;;;;6.55;4.60;;;15.10;99.90;;;;;;4977691;28;20019;-72
2021/04/26 10:41:55;;;;;;;8.85;4.82;;;15.20;93.10;;;;;;4978243;28;20050;-73
2021/04/26 10:44:39;;;;;;;8.60;4.38;;;15.10;90.90;;;;;;4981291;28;20033;-73
2021/04/26 10:47:32;;;;;;;6.55;4.82;;;15.00;92.60;;;;;;4981591;28;20364;-73
2021/04/26 10:50:00;;;;;;;7.07;4.35;;;14.90;90.60;;;;;;4951984;28;20039;-71
2021/04/26 10:52:26;;;;;;;6.88;4.72;;;14.50;93.70;;;;;;4978530;28;20081;-76
2021/04/26 10:54:53;;;;;;;6.18;5.00;;;14.70;94.10;;;;;;4964957;28;20446;-76
2021/04/26 10:57:39;;;;;;;7.10;5.50;;;14.80;93.40;;;;;;4959514;28;20035;-73
2021/04/26 11:00:20;;;;;;;5.07;4.55;;;14.90;91.00;;;;;;4972943;28;20023;-74
2021/04/26 11:02:52;;;;;;;7.90;4.80;;;15.00;85.50;;;;;;4977889;28;20039;-73
2021/04/26 11:05:23;;;;;;;5.35;4.85;;;15.30;78.90;;;;;;4977463;28;20035;-73
2021/04/26 11:08:04;;;;;;;5.63;4.60;;;14.90;74.80;;;;;;4977286;28;20100;-74
2021/04/26 11:10:30;;;;;;;6.43;4.20;;;15.00;75.10;;;;;;4975911;28;20065;-75
2021/04/26 11:12:56;;;;;;;4.88;4.30;;;15.60;72.40;;;;;;4975212;28;20026;-76
2021/04/26 11:15:24;;;;;;;4.72;4.18;;;15.70;69.70;;;;;;4970268;28;20055;-74
2021/04/26 11:17:50;;;;;;;8.25;5.25;;;15.70;64.90;;;;;;4977383;28;20038;-73
2021/04/26 11:20:19;;;;;;;6.40;4.55;;;15.50;60.40;;;;;;4978284;28;20403;-73
2021/04/26 11:22:46;;;;;;;5.78;4.22;;;15.60;59.90;;;;;;4977204;28;20027;-73
2021/04/26 11:25:31;;;;;;;5.45;4.80;;;16.00;58.40;;;;;;4976885;28;20027;-74
2021/04/26 11:27:57;;;;;;;6.38;4.40;;;16.30;53.70;;;;;;4976636;28;20089;-73
2021/04/26 11:30:26;;;;;;;5.38;4.43;;;16.40;47.20;;;;;;4978495;28;20547;-73
2021/04/26 11:32:57;;;;;;;4.65;4.00;;;16.40;48.30;;;;;;4976404;28;20062;-73
2021/04/26 11:35:23;;;;;;;;;;;16.10;49.60;;;;;;4978601;28;20430;-74
2021/04/26 11:37:50;;;;;;;8.65;5.05;;;15.80;54.70;;;;;;4970742;28;19910;-74
2021/04/26 11:40:21;;;;;;;7.22;4.13;;;15.60;46.80;;;;;;4978347;28;20030;-74
2021/04/26 11:42:47;;;;;;;5.32;4.00;;;16.00;47.90;;;;;;4978257;28;20032;-73
2021/04/26 11:45:14;;;;;;;5.93;3.95;;;16.20;44.40;;;;;;4980263;28;20051;-74
2021/04/26 11:47:40;;;;;;;6.90;4.05;;;15.90;43.50;;;;;;4977826;28;20405;-73
2021/04/26 11:50:08;;;;;;;6.43;4.18;;;16.30;41.70;;;;;;4980295;28;20039;-72
2021/04/26 11:52:36;;;;;;;5.72;3.95;;;16.10;41.30;;;;;;4979444;28;20509;-74
2021/04/26 11:55:02;;;;;;;7.88;4.00;;;16.20;39.60;;;;;;4983189;28;20026;-74
2021/04/26 11:57:29;;;;;;;4.65;4.18;;;16.40;37.30;;;;;;4986394;28;20054;-73
2021/04/26 12:00:12;;;;;;;4.43;3.95;;;16.30;33.90;;;;;;4985559;28;20030;-74
2021/04/26 12:02:45;;;;;;;6.45;4.13;;;16.30;30.50;;;;;;4985724;28;20104;-75
2021/04/26 12:05:17;;;;;;;5.43;3.80;;;16.10;29.30;;;;;;4981397;28;20027;-74
2021/04/26 12:07:45;;;;;;;6.70;3.72;;;16.00;27.30;;;;;;4979592;28;20026;-75
2021/04/26 12:10:17;;;;;;;5.82;4.20;;;16.30;26.30;;;;;;4968995;28;20054;-73
2021/04/26 12:12:44;;;;;;;4.97;3.85;;;16.40;23.70;;;;;;4979190;28;20513;-73
2021/04/26 12:15:13;;;;;;;6.90;4.38;;;16.30;22.20;;;;;;4974431;28;20105;-73
2021/04/26 12:17:44;;;;;;;8.02;4.00;;;16.30;20.60;;;;;;4986624;28;20027;-74
2021/04/26 12:20:23;;;;;;;5.38;3.60;;;16.30;20.10;;;;;;4977435;28;20026;-75
2021/04/26 12:22:53;;;;;;;4.63;3.50;;;16.90;19.10;;;;;;4978256;28;20444;-76
2021/04/26 12:25:21;;;;;;;4.80;4.30;;;17.00;14.40;;;;;;4977142;28;20026;-73
2021/04/26 12:27:47;;;;;;;8.57;4.35;;;16.90;14.70;;;;;;4976215;28;20027;-73
2021/04/26 12:30:16;;;;;;;6.00;4.03;;;16.90;14.20;;;;;;4960254;28;20031;-73
2021/04/26 12:32:42;;;;;;;7.72;4.18;;;16.70;13.90;;;;;;4963382;28;20035;-73
2021/04/26 12:35:10;;;;;;;5.00;3.67;;;16.90;13.80;;;;;;4969279;28;20027;-74
2021/04/26 12:37:42;;;;;;;8.85;3.30;;;16.50;11.60;;;;;;4964729;28;20074;-74
2021/04/26 12:40:18;;;;;;;5.47;4.53;;;16.60;11.90;;;;;;4975266;28;20019;-73
2021/04/26 12:43:00;;;;;;;5.32;3.95;;;16.80;10.20;;;;;;4964916;28;20027;-73
2021/04/26 12:45:39;;;;;;;9.75;4.57;;;16.50;8.60;;;;;;4968235;28;20022;-73
2021/04/26 12:48:06;;;;;;;6.13;3.58;;;16.10;9.60;;;;;;4962555;28;20057;-74
2021/04/26 12:50:44;;;;;;;5.97;4.15;;;16.20;7.90;;;;;;4957620;28;20498;-74
2021/04/26 12:53:21;;;;;;;4.53;3.63;;;16.70;10.10;;;;;;4956667;28;20038;-73
2021/04/26 12:56:02;;;;;;;6.32;3.75;;;17.00;8.00;;;;;;4956284;29;20152;-74
2021/04/26 12:58:29;;;;;;;4.53;3.72;;;17.00;7.40;;;;;;4957674;28;20035;-73
2021/04/26 13:01:03;;;;;;;8.88;4.00;;;16.80;6.90;;;;;;4974228;28;20026;-72
2021/04/26 13:03:51;;;;;;;5.75;4.90;;;17.00;7.30;;;;;;4974930;28;20024;-73